createdAt,value
2019-02-15T00:01:52.163Z,6.25
2019-02-15T00:04:22.619Z,6.20
2019-02-15T00:06:52.989Z,6.40
2019-02-15T00:09:23.324Z,6.67
2019-02-15T00:11:53.669Z,6.40
2019-02-15T00:14:24.240Z,6.12
2019-02-15T00:16:54.550Z,6.12
2019-02-15T00:19:37.252Z,6.55
2019-02-15T00:22:07.518Z,6.20
2019-02-15T00:24:37.851Z,5.60
2019-02-15T00:27:09.420Z,5.80
2019-02-15T00:29:39.754Z,6.28
2019-02-15T00:32:10.182Z,6.17
2019-02-15T00:34:40.574Z,6.47
2019-02-15T00:37:11.029Z,5.60
2019-02-15T00:39:41.314Z,5.85
2019-02-15T00:42:13.312Z,6.12
2019-02-15T00:44:43.563Z,6.05
2019-02-15T00:47:35.935Z,6.53
2019-02-15T00:50:25.318Z,6.15
2019-02-15T00:53:14.606Z,5.37
2019-02-15T00:55:57.392Z,6.25
2019-02-15T00:58:49.696Z,6.17
2019-02-15T01:01:37.652Z,5.53
2019-02-15T01:04:20.526Z,5.78
2019-02-15T01:07:17.869Z,5.83
2019-02-15T01:10:08.883Z,6.10
2019-02-15T01:12:52.112Z,5.55
2019-02-15T01:15:22.574Z,5.92
2019-02-15T01:17:52.911Z,5.58
2019-02-15T01:20:23.289Z,6.25
2019-02-15T01:22:53.709Z,5.78
2019-02-15T01:25:25.023Z,5.47
2019-02-15T01:28:16.425Z,5.72
2019-02-15T01:31:05.719Z,5.87
2019-02-15T01:33:55.003Z,5.60
2019-02-15T01:36:44.160Z,5.87
2019-02-15T01:39:36.090Z,6.00
2019-02-15T01:42:34.985Z,5.72
2019-02-15T01:45:16.429Z,4.95
2019-02-15T01:47:48.708Z,5.60
2019-02-15T01:50:19.003Z,5.45
2019-02-15T01:52:49.379Z,5.55
2019-02-15T01:55:19.672Z,5.92
2019-02-15T01:57:50.008Z,5.40
2019-02-15T02:00:21.697Z,5.90
2019-02-15T02:02:52.009Z,5.50
2019-02-15T02:05:22.350Z,5.60
2019-02-15T02:07:52.550Z,5.50
2019-02-15T02:10:22.903Z,5.75
2019-02-15T02:12:53.188Z,5.67
2019-02-15T02:15:23.431Z,5.90
2019-02-15T02:17:55.835Z,5.30
2019-02-15T02:20:26.198Z,5.75
2019-02-15T02:22:56.614Z,5.40
2019-02-15T02:25:26.903Z,5.17
2019-02-15T02:27:57.285Z,5.30
2019-02-15T02:30:28.250Z,5.37
2019-02-15T02:32:58.607Z,4.90
2019-02-15T02:35:28.901Z,5.20
2019-02-15T02:37:59.286Z,5.00
2019-02-15T02:40:29.770Z,4.95
2019-02-15T02:43:00.109Z,4.80
2019-02-15T02:45:30.401Z,5.25
2019-02-15T02:48:00.839Z,5.20
2019-02-15T02:50:32.485Z,4.65
2019-02-15T02:53:03.079Z,5.70
2019-02-15T02:55:33.323Z,5.25
2019-02-15T02:58:03.637Z,5.22
2019-02-15T03:00:37.141Z,4.87
2019-02-15T03:03:07.508Z,5.05
2019-02-15T03:05:37.859Z,4.92
2019-02-15T03:08:08.211Z,5.72
2019-02-15T03:10:38.557Z,4.95
2019-02-15T03:13:08.956Z,4.72
2019-02-15T03:15:39.353Z,4.65
2019-02-15T03:18:09.685Z,4.80
2019-02-15T03:20:40.126Z,4.60
2019-02-15T03:23:10.388Z,5.05
2019-02-15T03:25:40.719Z,4.92
2019-02-15T03:28:11.082Z,4.72
2019-02-15T03:30:41.419Z,4.75
2019-02-15T03:33:13.603Z,4.83
2019-02-15T03:35:56.182Z,4.30
2019-02-15T03:38:43.976Z,5.20
2019-02-15T03:41:27.657Z,4.62
2019-02-15T03:43:57.907Z,4.35
2019-02-15T03:46:28.187Z,4.62
2019-02-15T03:49:00.082Z,4.37
2019-02-15T03:51:30.373Z,4.70
2019-02-15T03:54:00.651Z,4.67
2019-02-15T03:56:30.912Z,4.70
2019-02-15T03:59:01.567Z,4.30
2019-02-15T04:01:31.796Z,4.83
2019-02-15T04:04:02.732Z,4.55
2019-02-15T04:06:33.138Z,4.97
2019-02-15T04:09:04.412Z,4.35
2019-02-15T04:11:34.757Z,4.70
2019-02-15T04:14:04.978Z,4.50
2019-02-15T04:16:35.286Z,4.55
2019-02-15T04:19:05.646Z,5.05
2019-02-15T04:21:36.038Z,4.85
2019-02-15T04:24:07.286Z,4.72
2019-02-15T04:26:51.739Z,4.65
2019-02-15T04:29:35.496Z,4.65
2019-02-15T04:32:07.271Z,4.50
2019-02-15T04:34:37.943Z,4.35
2019-02-15T04:37:08.290Z,4.30
2019-02-15T04:39:38.634Z,4.62
2019-02-15T04:42:08.912Z,4.67
2019-02-15T04:44:42.868Z,4.65
2019-02-15T04:47:11.155Z,4.37
2019-02-15T04:49:41.466Z,4.10
2019-02-15T04:52:11.838Z,4.58
2019-02-15T04:54:42.186Z,4.08
2019-02-15T04:57:12.532Z,4.95
2019-02-15T04:59:42.747Z,4.37
2019-02-15T05:02:13.019Z,4.62
2019-02-15T05:04:43.313Z,4.45
2019-02-15T05:07:13.704Z,4.53
2019-02-15T05:09:43.994Z,4.62
2019-02-15T05:12:14.639Z,4.15
2019-02-15T05:14:52.811Z,3.65
2019-02-15T05:17:17.155Z,3.83
2019-02-15T05:19:47.384Z,3.98
2019-02-15T05:22:18.129Z,4.30
2019-02-15T05:24:48.404Z,4.25
2019-02-15T05:27:19.775Z,4.05
2019-02-15T05:29:50.038Z,4.15
2019-02-15T05:32:20.390Z,4.10
2019-02-15T05:34:50.738Z,3.90
2019-02-15T05:37:22.074Z,4.53
2019-02-15T05:39:52.417Z,4.53
2019-02-15T05:42:24.419Z,4.50
2019-02-15T05:45:03.291Z,3.90
2019-02-15T05:47:28.795Z,4.08
2019-02-15T05:49:59.073Z,4.30
2019-02-15T05:52:29.353Z,3.77
2019-02-15T05:54:59.639Z,3.85
2019-02-15T05:57:29.983Z,3.70
2019-02-15T06:00:00.400Z,4.20
2019-02-15T06:02:30.821Z,4.42
2019-02-15T06:05:01.162Z,4.22
2019-02-15T06:07:31.526Z,4.47
2019-02-15T06:10:01.906Z,3.70
2019-02-15T06:12:32.287Z,4.28
2019-02-15T06:15:02.706Z,3.70
2019-02-15T06:17:33.340Z,4.62
2019-02-15T06:20:03.655Z,4.50
2019-02-15T06:22:35.034Z,4.15
2019-02-15T06:25:05.543Z,4.50
2019-02-15T06:27:35.845Z,4.12
2019-02-15T06:30:06.455Z,3.77
2019-02-15T06:32:36.917Z,4.37
2019-02-15T06:35:07.272Z,4.20
2019-02-15T06:37:38.741Z,4.47
2019-02-15T06:40:08.999Z,4.35
2019-02-15T06:42:39.280Z,4.53
2019-02-15T06:45:11.909Z,4.20
2019-02-15T06:47:42.249Z,4.15
2019-02-15T06:50:12.602Z,4.17
2019-02-15T06:52:42.846Z,4.22
2019-02-15T06:55:13.162Z,3.85
2019-02-15T06:57:43.416Z,4.35
2019-02-15T07:00:23.632Z,4.10
2019-02-15T07:03:11.533Z,4.22
2019-02-15T07:05:42.472Z,3.95
2019-02-15T07:08:12.812Z,4.12
2019-02-15T07:10:45.922Z,4.05
2019-02-15T07:13:16.331Z,4.20
2019-02-15T07:15:46.585Z,4.10
2019-02-15T07:18:16.904Z,4.00
2019-02-15T07:20:47.211Z,4.00
2019-02-15T07:23:20.679Z,4.30
2019-02-15T07:25:50.964Z,4.35
2019-02-15T07:28:22.926Z,4.00
2019-02-15T07:30:53.161Z,3.83
2019-02-15T07:33:24.502Z,4.28
2019-02-15T07:35:54.780Z,4.20
2019-02-15T07:38:25.076Z,4.08
2019-02-15T07:40:57.747Z,4.20
2019-02-15T07:43:28.143Z,4.05
2019-02-15T07:46:01.287Z,3.98
2019-02-15T07:48:32.620Z,4.35
2019-02-15T07:51:09.338Z,3.60
2019-02-15T07:53:34.982Z,3.90
2019-02-15T07:56:06.421Z,4.22
2019-02-15T07:58:36.825Z,4.20
2019-02-15T08:01:07.065Z,4.30
2019-02-15T08:03:37.474Z,3.98
2019-02-15T08:06:07.794Z,3.72
2019-02-15T08:08:38.092Z,4.00
2019-02-15T08:11:08.510Z,4.10
2019-02-15T08:13:38.856Z,3.72
2019-02-15T08:16:09.246Z,4.10
2019-02-15T08:18:39.548Z,3.85
2019-02-15T08:21:09.831Z,4.20
2019-02-15T08:23:40.142Z,3.85
2019-02-15T08:26:10.484Z,4.30
2019-02-15T08:28:40.821Z,4.50
2019-02-15T08:31:11.163Z,4.33
2019-02-15T08:33:41.560Z,4.22
2019-02-15T08:36:11.842Z,3.98
2019-02-15T08:38:42.237Z,3.60
2019-02-15T08:41:12.512Z,4.30
2019-02-15T08:43:42.808Z,4.00
2019-02-15T08:46:13.129Z,3.95
2019-02-15T08:48:46.213Z,3.75
2019-02-15T08:51:17.907Z,4.08
2019-02-15T08:53:50.308Z,3.92
2019-02-15T08:56:20.402Z,4.30
2019-02-15T08:58:50.722Z,3.98
2019-02-15T09:01:21.171Z,4.30
2019-02-15T09:03:51.432Z,3.60
2019-02-15T09:06:21.797Z,3.87
2019-02-15T09:08:52.085Z,3.85
2019-02-15T09:11:22.365Z,3.90
2019-02-15T09:13:52.615Z,3.95
2019-02-15T09:16:23.137Z,4.05
2019-02-15T09:18:55.737Z,3.83
2019-02-15T09:21:26.025Z,3.87
2019-02-15T09:23:56.406Z,3.65
2019-02-15T09:26:26.771Z,3.87
2019-02-15T09:29:02.651Z,3.70
2019-02-15T09:31:32.991Z,3.90
2019-02-15T09:34:03.332Z,3.65
2019-02-15T09:36:33.998Z,3.75
2019-02-15T09:39:05.291Z,3.90
2019-02-15T09:41:35.612Z,3.62
2019-02-15T09:44:05.888Z,3.92
2019-02-15T09:46:36.798Z,3.80
2019-02-15T09:49:08.348Z,3.60
2019-02-15T09:51:38.707Z,3.30
2019-02-15T09:54:09.012Z,3.90
2019-02-15T09:56:40.215Z,3.00
2019-02-15T09:59:10.549Z,3.25
2019-02-15T10:01:40.834Z,3.55
2019-02-15T10:04:11.217Z,3.20
2019-02-15T10:06:41.511Z,3.65
2019-02-15T10:09:11.846Z,3.15
2019-02-15T10:11:42.173Z,3.83
2019-02-15T10:14:15.415Z,2.87
2019-02-15T10:16:45.686Z,3.65
2019-02-15T10:19:22.218Z,3.42
2019-02-15T10:21:47.969Z,3.60
2019-02-15T10:24:18.309Z,3.20
2019-02-15T10:26:50.316Z,3.00
2019-02-15T10:29:20.608Z,3.20
2019-02-15T10:31:50.909Z,3.10
2019-02-15T10:34:21.215Z,3.10
2019-02-15T10:36:51.475Z,3.62
2019-02-15T10:39:22.196Z,3.37
2019-02-15T10:41:52.461Z,3.25
2019-02-15T10:44:22.723Z,3.00
2019-02-15T10:46:53.029Z,3.67
2019-02-15T10:49:23.380Z,3.42
2019-02-15T10:51:53.733Z,2.98
2019-02-15T10:54:23.958Z,3.33
2019-02-15T10:56:54.300Z,3.27
2019-02-15T10:59:24.646Z,2.87
2019-02-15T11:01:54.902Z,3.58
2019-02-15T11:04:25.568Z,3.10
2019-02-15T11:06:55.949Z,2.90
2019-02-15T11:09:26.303Z,3.12
2019-02-15T11:11:56.702Z,3.08
2019-02-15T11:14:27.575Z,3.05
2019-02-15T11:16:57.866Z,2.80
2019-02-15T11:19:28.217Z,2.90
2019-02-15T11:21:58.496Z,3.12
2019-02-15T11:24:28.872Z,3.00
2019-02-15T11:27:02.101Z,3.00
2019-02-15T11:29:33.514Z,2.80
2019-02-15T11:32:03.792Z,3.20
2019-02-15T11:34:34.103Z,2.83
2019-02-15T11:37:04.460Z,2.85
2019-02-15T11:39:34.876Z,3.05
2019-02-15T11:42:05.139Z,2.62
2019-02-15T11:44:35.466Z,2.95
2019-02-15T11:47:05.725Z,2.77
2019-02-15T11:49:36.075Z,2.87
2019-02-15T11:52:06.756Z,3.02
2019-02-15T11:54:37.121Z,2.55
2019-02-15T11:57:07.439Z,3.22
2019-02-15T11:59:37.669Z,3.12
2019-02-15T12:02:07.927Z,3.02
2019-02-15T12:04:38.234Z,3.27
2019-02-15T12:07:08.624Z,2.80
2019-02-15T12:09:38.923Z,2.60
2019-02-15T12:12:11.002Z,2.67
2019-02-15T12:14:41.277Z,2.77
2019-02-15T12:17:11.690Z,2.52
2019-02-15T12:19:41.967Z,3.10
2019-02-15T12:22:12.203Z,2.67
2019-02-15T12:24:42.475Z,2.62
2019-02-15T12:27:12.850Z,2.70
2019-02-15T12:29:43.134Z,2.80
2019-02-15T12:32:16.485Z,2.62
2019-02-15T12:34:48.302Z,2.27
2019-02-15T12:37:18.686Z,2.80
2019-02-15T12:39:51.224Z,2.92
2019-02-15T12:42:21.610Z,2.80
2019-02-15T12:44:51.880Z,2.35
2019-02-15T12:47:24.400Z,2.70
2019-02-15T12:49:55.772Z,2.92
2019-02-15T12:52:26.167Z,2.75
2019-02-15T12:54:56.444Z,2.80
2019-02-15T12:57:26.836Z,2.42
2019-02-15T12:59:57.160Z,2.60
2019-02-15T13:02:27.469Z,2.55
2019-02-15T13:05:05.470Z,2.40
2019-02-15T13:07:35.733Z,2.60
2019-02-15T13:10:09.131Z,2.50
2019-02-15T13:12:39.832Z,2.30
2019-02-15T13:15:10.219Z,2.58
2019-02-15T13:17:41.590Z,2.77
2019-02-15T13:20:13.164Z,2.62
2019-02-15T13:22:43.769Z,2.15
2019-02-15T13:25:21.040Z,2.50
2019-02-15T13:27:56.138Z,2.77
2019-02-15T13:30:42.078Z,3.00
2019-02-15T13:33:17.052Z,2.62
2019-02-15T13:35:54.299Z,2.50
2019-02-15T13:38:34.199Z,2.10
2019-02-15T13:41:10.894Z,2.45
2019-02-15T13:43:49.353Z,2.58
2019-02-15T13:46:28.510Z,2.77
2019-02-15T13:49:09.031Z,2.80
2019-02-15T13:51:48.243Z,2.65
2019-02-15T13:54:33.510Z,2.70
2019-02-15T13:57:06.200Z,2.62
2019-02-15T13:59:42.143Z,3.33
2019-02-15T14:02:13.538Z,3.15
2019-02-15T14:04:51.441Z,3.35
2019-02-15T14:07:26.052Z,3.35
2019-02-15T14:10:10.567Z,2.83
2019-02-15T14:12:45.904Z,3.25
2019-02-15T14:15:23.338Z,3.22
2019-02-15T14:18:07.840Z,2.70
2019-02-15T14:20:42.748Z,2.92
2019-02-15T14:23:23.380Z,2.87
2019-02-15T14:26:06.999Z,2.67
2019-02-15T14:28:48.634Z,2.60
2019-02-15T14:31:33.333Z,3.15
2019-02-15T14:34:11.793Z,2.35
2019-02-15T14:36:51.110Z,2.45
2019-02-15T14:39:29.857Z,2.10
2019-02-15T14:42:14.324Z,2.72
2019-02-15T14:44:51.418Z,2.40
2019-02-15T14:47:24.820Z,2.72
2019-02-15T14:49:55.141Z,2.62
2019-02-15T14:52:25.626Z,2.40
2019-02-15T14:54:56.097Z,2.67
2019-02-15T14:57:26.460Z,2.70
2019-02-15T14:59:57.089Z,2.55
2019-02-15T15:02:27.434Z,2.40
2019-02-15T15:04:59.503Z,2.52
2019-02-15T15:07:30.999Z,2.33
2019-02-15T15:10:03.634Z,2.52
2019-02-15T15:12:34.423Z,2.30
2019-02-15T15:15:05.388Z,2.58
2019-02-15T15:17:35.848Z,2.22
2019-02-15T15:20:07.424Z,2.80
2019-02-15T15:22:41.514Z,2.37
2019-02-15T15:25:13.143Z,2.50
2019-02-15T15:27:43.616Z,2.25
2019-02-15T15:30:14.087Z,2.30
2019-02-15T15:32:44.505Z,2.35
2019-02-15T15:35:15.688Z,2.30
2019-02-15T15:37:46.360Z,2.17
2019-02-15T15:40:20.210Z,2.50
2019-02-15T15:42:50.978Z,2.15
2019-02-15T15:45:23.720Z,3.00
2019-02-15T15:47:54.347Z,2.20
2019-02-15T15:50:24.873Z,2.37
2019-02-15T15:52:55.338Z,2.42
2019-02-15T15:55:25.774Z,2.87
2019-02-15T15:57:56.418Z,3.08
2019-02-15T16:00:27.411Z,2.98
2019-02-15T16:02:57.814Z,2.55
2019-02-15T16:05:28.222Z,2.92
2019-02-15T16:08:00.349Z,3.05
2019-02-15T16:10:30.838Z,2.30
2019-02-15T16:13:03.515Z,2.80
2019-02-15T16:15:34.112Z,2.83
2019-02-15T16:18:04.508Z,3.02
2019-02-15T16:20:34.983Z,3.30
2019-02-15T16:23:05.472Z,3.58
2019-02-15T16:25:35.758Z,3.35
2019-02-15T16:28:06.346Z,3.80
2019-02-15T16:30:37.136Z,3.55
2019-02-15T16:33:07.870Z,3.40
2019-02-15T16:35:38.393Z,3.50
2019-02-15T16:38:12.363Z,3.20
2019-02-15T16:40:42.949Z,3.75
2019-02-15T16:43:17.355Z,4.05
2019-02-15T16:45:49.073Z,3.58
2019-02-15T16:48:19.507Z,3.30
2019-02-15T16:50:49.878Z,3.92
2019-02-15T16:53:21.844Z,3.15
2019-02-15T16:55:52.461Z,3.12
2019-02-15T16:58:25.148Z,3.85
2019-02-15T17:00:55.655Z,3.65
2019-02-15T17:03:27.032Z,3.52
2019-02-15T17:06:00.697Z,3.55
2019-02-15T17:08:31.388Z,3.55
2019-02-15T17:11:03.044Z,3.50
2019-02-15T17:13:34.709Z,3.40
2019-02-15T17:16:05.241Z,3.47
2019-02-15T17:18:38.305Z,3.37
2019-02-15T17:21:09.678Z,3.30
2019-02-15T17:23:41.058Z,3.20
2019-02-15T17:26:11.353Z,3.83
2019-02-15T17:28:41.929Z,3.77
2019-02-15T17:31:15.801Z,3.58
2019-02-15T17:33:47.011Z,3.50
2019-02-15T17:36:18.328Z,3.35
2019-02-15T17:38:48.743Z,3.60
2019-02-15T17:41:19.027Z,3.47
2019-02-15T17:43:48.192Z,3.70
2019-02-15T17:46:17.153Z,3.92
2019-02-15T17:49:00.557Z,4.25
2019-02-15T17:51:24.418Z,3.70
2019-02-15T17:53:54.752Z,4.22
2019-02-15T17:56:26.136Z,3.80
2019-02-15T17:58:56.444Z,3.92
2019-02-15T18:01:27.129Z,4.03
2019-02-15T18:03:59.744Z,3.60
2019-02-15T18:06:33.253Z,4.10
2019-02-15T18:09:03.575Z,4.25
2019-02-15T18:11:37.806Z,4.10
2019-02-15T18:14:08.099Z,4.22
2019-02-15T18:16:39.507Z,4.00
2019-02-15T18:19:12.347Z,3.85
2019-02-15T18:21:43.826Z,3.85
2019-02-15T18:24:17.273Z,4.20
2019-02-15T18:26:48.103Z,4.15
2019-02-15T18:29:18.706Z,4.10
2019-02-15T18:31:50.402Z,4.35
2019-02-15T18:34:22.874Z,4.20
2019-02-15T18:36:55.606Z,3.77
2019-02-15T18:39:26.172Z,5.53
2019-02-15T18:41:57.827Z,10.32
2019-02-15T18:44:28.047Z,7.03
2019-02-15T18:46:58.334Z,7.10
2019-02-15T18:49:29.423Z,6.95
2019-02-15T18:51:59.978Z,7.85
2019-02-15T18:54:33.654Z,6.58
2019-02-15T18:57:05.030Z,5.80
2019-02-15T18:59:35.514Z,5.87
2019-02-15T19:02:07.930Z,6.10
2019-02-15T19:04:38.301Z,6.35
2019-02-15T19:07:09.051Z,5.97
2019-02-15T19:09:40.384Z,7.70
2019-02-15T19:12:12.377Z,6.12
2019-02-15T19:14:42.692Z,6.60
2019-02-15T19:17:14.570Z,7.35
2019-02-15T19:19:44.967Z,7.17
2019-02-15T19:22:15.101Z,8.45
2019-02-15T19:24:45.532Z,7.95
2019-02-15T19:27:15.996Z,7.85
2019-02-15T19:29:48.005Z,8.03
2019-02-15T19:32:18.369Z,8.30
2019-02-15T19:34:48.770Z,7.62
2019-02-15T19:37:22.065Z,8.83
2019-02-15T19:39:51.957Z,10.48
2019-02-15T19:42:23.934Z,8.90
2019-02-15T19:44:54.369Z,10.18
2019-02-15T19:47:25.922Z,9.55
2019-02-15T19:49:56.257Z,10.85
2019-02-15T19:52:27.006Z,10.50
2019-02-15T19:54:57.412Z,9.28
2019-02-15T19:57:27.766Z,10.25
2019-02-15T19:59:58.076Z,9.65
2019-02-15T20:02:28.479Z,11.78
2019-02-15T20:04:59.258Z,11.75
2019-02-15T20:07:29.668Z,11.18
2019-02-15T20:09:59.997Z,11.97
2019-02-15T20:12:30.646Z,11.12
2019-02-15T20:15:00.984Z,11.12
2019-02-15T20:17:32.932Z,11.63
2019-02-15T20:20:03.901Z,12.45
2019-02-15T20:22:35.270Z,12.65
2019-02-15T20:25:07.116Z,12.73
2019-02-15T20:27:42.456Z,13.43
2019-02-15T20:30:15.145Z,14.07
2019-02-15T20:32:45.630Z,13.28
2019-02-15T20:35:16.129Z,13.93
2019-02-15T20:37:46.751Z,12.85
2019-02-15T20:40:17.918Z,12.80
2019-02-15T20:42:49.052Z,13.40
2019-02-15T20:45:20.462Z,14.25
2019-02-15T20:47:51.740Z,13.03
2019-02-15T20:50:22.876Z,12.88
2019-02-15T20:52:53.322Z,13.78
2019-02-15T20:55:23.783Z,13.68
2019-02-15T20:57:55.622Z,13.22
2019-02-15T21:00:26.102Z,13.72
2019-02-15T21:02:56.426Z,14.60
2019-02-15T21:05:26.836Z,14.18
2019-02-15T21:07:57.187Z,13.85
2019-02-15T21:10:27.561Z,14.75
2019-02-15T21:12:57.921Z,13.75
2019-02-15T21:15:28.755Z,14.40
2019-02-15T21:18:01.115Z,14.60
2019-02-15T21:20:31.763Z,14.00
2019-02-15T21:23:02.412Z,14.53
2019-02-15T21:25:32.717Z,14.03
2019-02-15T21:28:03.130Z,13.60
2019-02-15T21:30:33.541Z,14.45
2019-02-15T21:33:03.972Z,14.20
2019-02-15T21:35:34.656Z,14.75
2019-02-15T21:38:05.015Z,14.03
2019-02-15T21:40:35.426Z,15.23
2019-02-15T21:43:06.965Z,15.10
2019-02-15T21:45:37.760Z,13.62
2019-02-15T21:48:08.143Z,15.15
2019-02-15T21:50:38.468Z,14.47
2019-02-15T21:53:09.142Z,14.83
2019-02-15T21:55:39.619Z,15.50
2019-02-15T21:58:10.034Z,14.55
2019-02-15T22:00:40.330Z,15.30
2019-02-15T22:03:10.657Z,15.05
2019-02-15T22:05:40.956Z,15.85
2019-02-15T22:08:11.242Z,17.05
2019-02-15T22:10:41.671Z,15.68
2019-02-15T22:13:12.009Z,15.70
2019-02-15T22:15:42.630Z,16.23
2019-02-15T22:18:12.969Z,15.58
2019-02-15T22:20:43.358Z,16.05
2019-02-15T22:23:13.751Z,16.40
2019-02-15T22:25:44.064Z,16.45
2019-02-15T22:28:15.498Z,16.10
2019-02-15T22:30:45.873Z,16.05
2019-02-15T22:33:16.504Z,15.53
2019-02-15T22:35:46.815Z,15.05
2019-02-15T22:38:17.227Z,16.15
2019-02-15T22:40:49.038Z,16.15
2019-02-15T22:43:22.005Z,16.23
2019-02-15T22:45:55.926Z,16.30
2019-02-15T22:48:26.603Z,17.10
2019-02-15T22:50:57.278Z,16.87
2019-02-15T22:53:28.690Z,16.40
2019-02-15T22:56:00.553Z,15.48
2019-02-15T22:58:30.925Z,15.78
2019-02-15T23:01:20.917Z,16.27
2019-02-15T23:03:51.398Z,16.12
2019-02-15T23:06:21.668Z,16.95
2019-02-15T23:08:52.080Z,16.60
2019-02-15T23:11:22.516Z,16.97
2019-02-15T23:13:52.917Z,16.60
2019-02-15T23:16:23.471Z,17.25
2019-02-15T23:18:55.461Z,17.10
2019-02-15T23:21:25.873Z,16.75
2019-02-15T23:23:58.331Z,16.27
2019-02-15T23:26:28.773Z,16.57
2019-02-15T23:29:00.619Z,16.60
2019-02-15T23:31:33.161Z,15.83
2019-02-15T23:34:03.509Z,16.95
2019-02-15T23:36:35.372Z,16.07
2019-02-15T23:39:06.208Z,16.05
2019-02-15T23:41:38.229Z,16.57
2019-02-15T23:44:08.527Z,15.95
2019-02-15T23:46:38.916Z,16.42
2019-02-15T23:49:09.222Z,17.57
2019-02-15T23:51:39.715Z,16.67
2019-02-15T23:54:10.040Z,16.93
2019-02-15T23:56:40.956Z,16.48
2019-02-15T23:59:11.269Z,16.97
